sensor_id;sensor_type;location;lat;lon;timestamp;P1;durP1;ratioP1;P2;durP2;ratioP2
65047;SDS011;52089;51.362;-2.384;2022-12-07T00:03:41;10.07;;;7.07;;
65047;SDS011;52089;51.362;-2.384;2022-12-07T00:07:24;10.33;;;7.17;;
65047;SDS011;52089;51.362;-2.384;2022-12-07T00:11:09;14.70;;;7.37;;
65047;SDS011;52089;51.362;-2.384;2022-12-07T00:14:59;11.70;;;7.70;;
65047;SDS011;52089;51.362;-2.384;2022-12-07T00:18:41;15.77;;;7.87;;
65047;SDS011;52089;51.362;-2.384;2022-12-07T00:22:23;17.87;;;10.60;;
65047;SDS011;52089;51.362;-2.384;2022-12-07T00:26:09;13.93;;;8.70;;
65047;SDS011;52089;51.362;-2.384;2022-12-07T00:29:53;13.67;;;8.73;;
65047;SDS011;52089;51.362;-2.384;2022-12-07T00:33:35;13.43;;;8.40;;
65047;SDS011;52089;51.362;-2.384;2022-12-07T00:37:17;13.43;;;7.50;;
65047;SDS011;52089;51.362;-2.384;2022-12-07T00:41:00;10.47;;;7.10;;
65047;SDS011;52089;51.362;-2.384;2022-12-07T00:44:46;10.73;;;6.83;;
65047;SDS011;52089;51.362;-2.384;2022-12-07T00:48:27;12.47;;;7.33;;
65047;SDS011;52089;51.362;-2.384;2022-12-07T00:52:09;9.87;;;6.33;;
65047;SDS011;52089;51.362;-2.384;2022-12-07T00:55:51;13.87;;;7.30;;
65047;SDS011;52089;51.362;-2.384;2022-12-07T00:59:33;10.03;;;6.53;;
65047;SDS011;52089;51.362;-2.384;2022-12-07T01:03:15;50.07;;;35.47;;
65047;SDS011;52089;51.362;-2.384;2022-12-07T01:06:58;20.70;;;12.27;;
65047;SDS011;52089;51.362;-2.384;2022-12-07T01:10:40;14.97;;;8.63;;
65047;SDS011;52089;51.362;-2.384;2022-12-07T01:14:22;14.57;;;8.33;;
65047;SDS011;52089;51.362;-2.384;2022-12-07T01:18:03;13.17;;;7.23;;
65047;SDS011;52089;51.362;-2.384;2022-12-07T01:21:45;10.73;;;7.47;;
65047;SDS011;52089;51.362;-2.384;2022-12-07T01:25:27;11.73;;;7.53;;
65047;SDS011;52089;51.362;-2.384;2022-12-07T01:29:09;14.07;;;7.27;;
65047;SDS011;52089;51.362;-2.384;2022-12-07T01:32:51;10.20;;;6.57;;
65047;SDS011;52089;51.362;-2.384;2022-12-07T01:36:34;12.53;;;6.93;;
65047;SDS011;52089;51.362;-2.384;2022-12-07T01:40:17;14.10;;;7.77;;
65047;SDS011;52089;51.362;-2.384;2022-12-07T01:48:00;13.40;;;7.10;;
65047;SDS011;52089;51.362;-2.384;2022-12-07T01:51:43;12.80;;;7.20;;
65047;SDS011;52089;51.362;-2.384;2022-12-07T01:55:26;13.83;;;7.57;;
65047;SDS011;52089;51.362;-2.384;2022-12-07T01:59:08;12.43;;;7.23;;
65047;SDS011;52089;51.362;-2.384;2022-12-07T02:06:36;11.43;;;7.27;;
65047;SDS011;52089;51.362;-2.384;2022-12-07T02:10:26;11.93;;;6.33;;
65047;SDS011;52089;51.362;-2.384;2022-12-07T02:14:09;11.40;;;7.32;;
65047;SDS011;52089;51.362;-2.384;2022-12-07T02:17:57;12.23;;;6.30;;
65047;SDS011;52089;51.362;-2.384;2022-12-07T02:29:49;12.70;;;5.83;;
65047;SDS011;52089;51.362;-2.384;2022-12-07T02:33:50;12.17;;;6.10;;
65047;SDS011;52089;51.362;-2.384;2022-12-07T02:37:42;8.30;;;5.63;;
65047;SDS011;52089;51.362;-2.384;2022-12-07T02:41:40;8.23;;;5.77;;
65047;SDS011;52089;51.362;-2.384;2022-12-07T02:45:27;10.77;;;5.20;;
65047;SDS011;52089;51.362;-2.384;2022-12-07T02:49:12;10.83;;;5.77;;
65047;SDS011;52089;51.362;-2.384;2022-12-07T02:52:54;9.83;;;5.43;;
65047;SDS011;52089;51.362;-2.384;2022-12-07T03:00:29;8.70;;;5.13;;
65047;SDS011;52089;51.362;-2.384;2022-12-07T03:08:35;10.50;;;5.97;;
65047;SDS011;52089;51.362;-2.384;2022-12-07T03:12:20;12.60;;;6.27;;
65047;SDS011;52089;51.362;-2.384;2022-12-07T03:20:23;11.60;;;5.37;;
65047;SDS011;52089;51.362;-2.384;2022-12-07T03:24:08;10.73;;;6.40;;
65047;SDS011;52089;51.362;-2.384;2022-12-07T03:27:57;11.47;;;6.20;;
65047;SDS011;52089;51.362;-2.384;2022-12-07T03:31:44;12.10;;;6.27;;
65047;SDS011;52089;51.362;-2.384;2022-12-07T03:35:43;14.67;;;6.77;;
65047;SDS011;52089;51.362;-2.384;2022-12-07T03:43:57;10.50;;;6.40;;
65047;SDS011;52089;51.362;-2.384;2022-12-07T03:56:09;11.03;;;6.33;;
65047;SDS011;52089;51.362;-2.384;2022-12-07T03:59:53;10.80;;;6.33;;
65047;SDS011;52089;51.362;-2.384;2022-12-07T04:03:36;10.77;;;5.80;;
65047;SDS011;52089;51.362;-2.384;2022-12-07T04:07:18;11.03;;;6.43;;
65047;SDS011;52089;51.362;-2.384;2022-12-07T04:11:00;10.67;;;6.00;;
65047;SDS011;52089;51.362;-2.384;2022-12-07T04:14:42;12.20;;;7.13;;
65047;SDS011;52089;51.362;-2.384;2022-12-07T04:18:24;13.30;;;6.47;;
65047;SDS011;52089;51.362;-2.384;2022-12-07T04:22:06;12.37;;;6.40;;
65047;SDS011;52089;51.362;-2.384;2022-12-07T04:25:48;12.23;;;6.23;;
65047;SDS011;52089;51.362;-2.384;2022-12-07T04:29:30;13.80;;;6.60;;
65047;SDS011;52089;51.362;-2.384;2022-12-07T04:33:12;11.10;;;6.33;;
65047;SDS011;52089;51.362;-2.384;2022-12-07T04:36:54;13.33;;;7.50;;
65047;SDS011;52089;51.362;-2.384;2022-12-07T04:40:36;12.63;;;6.63;;
65047;SDS011;52089;51.362;-2.384;2022-12-07T04:44:18;11.07;;;5.10;;
65047;SDS011;52089;51.362;-2.384;2022-12-07T04:48:00;10.97;;;5.77;;
65047;SDS011;52089;51.362;-2.384;2022-12-07T04:51:42;10.47;;;5.57;;
65047;SDS011;52089;51.362;-2.384;2022-12-07T04:55:24;11.40;;;5.40;;
65047;SDS011;52089;51.362;-2.384;2022-12-07T04:59:06;7.53;;;4.50;;
65047;SDS011;52089;51.362;-2.384;2022-12-07T05:02:48;9.03;;;4.93;;
65047;SDS011;52089;51.362;-2.384;2022-12-07T05:06:30;9.10;;;4.80;;
65047;SDS011;52089;51.362;-2.384;2022-12-07T05:10:12;10.20;;;4.93;;
65047;SDS011;52089;51.362;-2.384;2022-12-07T05:13:54;11.80;;;4.37;;
65047;SDS011;52089;51.362;-2.384;2022-12-07T05:17:36;8.13;;;4.67;;
65047;SDS011;52089;51.362;-2.384;2022-12-07T05:21:17;10.73;;;4.30;;
65047;SDS011;52089;51.362;-2.384;2022-12-07T05:24:59;9.50;;;4.50;;
65047;SDS011;52089;51.362;-2.384;2022-12-07T05:28:41;11.07;;;4.73;;
65047;SDS011;52089;51.362;-2.384;2022-12-07T05:32:23;11.43;;;4.33;;
65047;SDS011;52089;51.362;-2.384;2022-12-07T05:36:05;6.70;;;4.10;;
65047;SDS011;52089;51.362;-2.384;2022-12-07T05:39:48;7.57;;;4.00;;
65047;SDS011;52089;51.362;-2.384;2022-12-07T05:43:30;8.23;;;4.20;;
65047;SDS011;52089;51.362;-2.384;2022-12-07T05:47:12;9.40;;;4.20;;
65047;SDS011;52089;51.362;-2.384;2022-12-07T05:50:55;8.73;;;4.33;;
65047;SDS011;52089;51.362;-2.384;2022-12-07T05:54:37;11.60;;;5.67;;
65047;SDS011;52089;51.362;-2.384;2022-12-07T05:58:19;11.37;;;5.17;;
65047;SDS011;52089;51.362;-2.384;2022-12-07T06:02:19;11.13;;;4.40;;
65047;SDS011;52089;51.362;-2.384;2022-12-07T06:06:01;9.30;;;4.53;;
65047;SDS011;52089;51.362;-2.384;2022-12-07T06:09:43;10.40;;;4.57;;
65047;SDS011;52089;51.362;-2.384;2022-12-07T06:13:25;9.27;;;4.80;;
65047;SDS011;52089;51.362;-2.384;2022-12-07T06:17:07;12.50;;;6.60;;
65047;SDS011;52089;51.362;-2.384;2022-12-07T06:20:49;10.67;;;5.37;;
65047;SDS011;52089;51.362;-2.384;2022-12-07T06:24:31;10.17;;;4.47;;
65047;SDS011;52089;51.362;-2.384;2022-12-07T06:28:13;9.57;;;4.37;;
65047;SDS011;52089;51.362;-2.384;2022-12-07T06:31:55;7.73;;;3.97;;
65047;SDS011;52089;51.362;-2.384;2022-12-07T06:35:38;6.37;;;4.20;;
65047;SDS011;52089;51.362;-2.384;2022-12-07T06:39:21;8.93;;;3.43;;
65047;SDS011;52089;51.362;-2.384;2022-12-07T06:43:04;8.73;;;3.30;;
65047;SDS011;52089;51.362;-2.384;2022-12-07T06:46:46;7.03;;;3.43;;
65047;SDS011;52089;51.362;-2.384;2022-12-07T06:50:29;9.97;;;5.47;;
65047;SDS011;52089;51.362;-2.384;2022-12-07T06:54:11;8.67;;;4.40;;
65047;SDS011;52089;51.362;-2.384;2022-12-07T06:57:54;6.87;;;4.40;;
65047;SDS011;52089;51.362;-2.384;2022-12-07T07:01:36;6.63;;;3.83;;
65047;SDS011;52089;51.362;-2.384;2022-12-07T07:05:18;9.40;;;3.83;;
65047;SDS011;52089;51.362;-2.384;2022-12-07T07:09:02;8.80;;;3.77;;
65047;SDS011;52089;51.362;-2.384;2022-12-07T07:12:44;9.93;;;3.57;;
65047;SDS011;52089;51.362;-2.384;2022-12-07T07:16:26;6.23;;;3.53;;
65047;SDS011;52089;51.362;-2.384;2022-12-07T07:20:08;8.53;;;3.80;;
65047;SDS011;52089;51.362;-2.384;2022-12-07T07:23:50;9.07;;;3.60;;
65047;SDS011;52089;51.362;-2.384;2022-12-07T07:27:33;10.30;;;3.53;;
65047;SDS011;52089;51.362;-2.384;2022-12-07T07:31:14;5.20;;;3.33;;
65047;SDS011;52089;51.362;-2.384;2022-12-07T07:34:56;5.13;;;3.30;;
65047;SDS011;52089;51.362;-2.384;2022-12-07T07:38:38;7.60;;;3.87;;
65047;SDS011;52089;51.362;-2.384;2022-12-07T07:42:20;6.53;;;4.43;;
65047;SDS011;52089;51.362;-2.384;2022-12-07T07:46:02;8.20;;;4.63;;
65047;SDS011;52089;51.362;-2.384;2022-12-07T07:49:44;7.50;;;4.30;;
65047;SDS011;52089;51.362;-2.384;2022-12-07T07:53:28;7.97;;;4.97;;
65047;SDS011;52089;51.362;-2.384;2022-12-07T07:57:10;7.57;;;4.13;;
65047;SDS011;52089;51.362;-2.384;2022-12-07T08:00:52;9.50;;;4.70;;
65047;SDS011;52089;51.362;-2.384;2022-12-07T08:04:34;11.37;;;4.87;;
65047;SDS011;52089;51.362;-2.384;2022-12-07T08:08:17;8.23;;;5.00;;
65047;SDS011;52089;51.362;-2.384;2022-12-07T08:11:59;10.83;;;5.00;;
65047;SDS011;52089;51.362;-2.384;2022-12-07T08:15:42;9.27;;;4.37;;
65047;SDS011;52089;51.362;-2.384;2022-12-07T08:19:25;8.77;;;4.30;;
65047;SDS011;52089;51.362;-2.384;2022-12-07T08:23:07;8.07;;;4.90;;
65047;SDS011;52089;51.362;-2.384;2022-12-07T08:26:50;9.40;;;5.37;;
65047;SDS011;52089;51.362;-2.384;2022-12-07T08:30:32;11.10;;;5.57;;
65047;SDS011;52089;51.362;-2.384;2022-12-07T08:34:13;10.33;;;5.80;;
65047;SDS011;52089;51.362;-2.384;2022-12-07T08:37:55;9.43;;;5.63;;
65047;SDS011;52089;51.362;-2.384;2022-12-07T08:41:39;9.50;;;6.17;;
65047;SDS011;52089;51.362;-2.384;2022-12-07T08:45:21;12.30;;;6.77;;
65047;SDS011;52089;51.362;-2.384;2022-12-07T08:49:11;15.03;;;7.00;;
65047;SDS011;52089;51.362;-2.384;2022-12-07T08:52:56;17.37;;;7.80;;
65047;SDS011;52089;51.362;-2.384;2022-12-07T08:56:40;20.00;;;9.83;;
65047;SDS011;52089;51.362;-2.384;2022-12-07T09:00:22;21.77;;;9.87;;
65047;SDS011;52089;51.362;-2.384;2022-12-07T09:04:04;20.53;;;11.07;;
65047;SDS011;52089;51.362;-2.384;2022-12-07T09:07:48;20.83;;;10.37;;
65047;SDS011;52089;51.362;-2.384;2022-12-07T09:11:35;27.13;;;13.27;;
65047;SDS011;52089;51.362;-2.384;2022-12-07T09:15:17;23.40;;;11.70;;
65047;SDS011;52089;51.362;-2.384;2022-12-07T09:18:59;22.67;;;10.83;;
65047;SDS011;52089;51.362;-2.384;2022-12-07T09:22:41;20.27;;;10.27;;
65047;SDS011;52089;51.362;-2.384;2022-12-07T09:26:22;18.63;;;9.93;;
65047;SDS011;52089;51.362;-2.384;2022-12-07T09:30:05;19.63;;;10.97;;
65047;SDS011;52089;51.362;-2.384;2022-12-07T09:33:52;24.90;;;11.23;;
65047;SDS011;52089;51.362;-2.384;2022-12-07T09:37:38;17.02;;;10.48;;
65047;SDS011;52089;51.362;-2.384;2022-12-07T09:41:20;21.53;;;10.93;;
65047;SDS011;52089;51.362;-2.384;2022-12-07T09:45:10;19.67;;;11.63;;
65047;SDS011;52089;51.362;-2.384;2022-12-07T09:48:58;17.37;;;10.00;;
65047;SDS011;52089;51.362;-2.384;2022-12-07T09:52:40;19.07;;;10.07;;
65047;SDS011;52089;51.362;-2.384;2022-12-07T09:56:23;17.53;;;9.67;;
65047;SDS011;52089;51.362;-2.384;2022-12-07T10:00:07;17.30;;;9.00;;
65047;SDS011;52089;51.362;-2.384;2022-12-07T10:08:02;14.67;;;8.00;;
65047;SDS011;52089;51.362;-2.384;2022-12-07T10:15:59;11.13;;;7.53;;
65047;SDS011;52089;51.362;-2.384;2022-12-07T10:19:47;13.03;;;7.87;;
65047;SDS011;52089;51.362;-2.384;2022-12-07T10:23:29;12.30;;;8.00;;
65047;SDS011;52089;51.362;-2.384;2022-12-07T10:27:29;12.83;;;7.97;;
65047;SDS011;52089;51.362;-2.384;2022-12-07T10:31:19;12.83;;;7.63;;
65047;SDS011;52089;51.362;-2.384;2022-12-07T10:39:14;11.00;;;7.17;;
65047;SDS011;52089;51.362;-2.384;2022-12-07T11:03:23;13.37;;;7.70;;
65047;SDS011;52089;51.362;-2.384;2022-12-07T11:24:01;9.70;;;6.33;;
65047;SDS011;52089;51.362;-2.384;2022-12-07T11:31:58;7.43;;;5.30;;
65047;SDS011;52089;51.362;-2.384;2022-12-07T11:39:50;8.33;;;5.93;;
65047;SDS011;52089;51.362;-2.384;2022-12-07T11:43:34;10.70;;;5.40;;
65047;SDS011;52089;51.362;-2.384;2022-12-07T11:47:18;10.90;;;5.27;;
65047;SDS011;52089;51.362;-2.384;2022-12-07T11:51:12;10.83;;;5.47;;
65047;SDS011;52089;51.362;-2.384;2022-12-07T11:54:56;8.03;;;5.40;;
65047;SDS011;52089;51.362;-2.384;2022-12-07T12:02:33;9.33;;;5.37;;
65047;SDS011;52089;51.362;-2.384;2022-12-07T12:06:28;11.00;;;5.90;;
65047;SDS011;52089;51.362;-2.384;2022-12-07T12:10:21;11.27;;;6.07;;
65047;SDS011;52089;51.362;-2.384;2022-12-07T12:18:38;10.23;;;5.50;;
65047;SDS011;52089;51.362;-2.384;2022-12-07T12:22:32;8.53;;;4.97;;
65047;SDS011;52089;51.362;-2.384;2022-12-07T12:26:20;10.30;;;5.43;;
65047;SDS011;52089;51.362;-2.384;2022-12-07T12:30:05;9.40;;;4.77;;
65047;SDS011;52089;51.362;-2.384;2022-12-07T12:34:29;12.95;;;5.47;;
65047;SDS011;52089;51.362;-2.384;2022-12-07T12:42:52;7.53;;;3.97;;
65047;SDS011;52089;51.362;-2.384;2022-12-07T12:50:24;9.53;;;4.67;;
65047;SDS011;52089;51.362;-2.384;2022-12-07T12:54:28;10.63;;;4.80;;
65047;SDS011;52089;51.362;-2.384;2022-12-07T13:06:19;6.50;;;3.50;;
65047;SDS011;52089;51.362;-2.384;2022-12-07T13:10:01;8.97;;;3.57;;
65047;SDS011;52089;51.362;-2.384;2022-12-07T13:13:43;7.13;;;3.40;;
65047;SDS011;52089;51.362;-2.384;2022-12-07T13:24:56;7.83;;;3.53;;
65047;SDS011;52089;51.362;-2.384;2022-12-07T13:28:42;5.23;;;3.30;;
65047;SDS011;52089;51.362;-2.384;2022-12-07T13:33:08;6.37;;;3.00;;
65047;SDS011;52089;51.362;-2.384;2022-12-07T13:36:46;9.20;;;3.90;;
65047;SDS011;52089;51.362;-2.384;2022-12-07T13:40:28;6.00;;;3.20;;
65047;SDS011;52089;51.362;-2.384;2022-12-07T13:44:11;7.17;;;3.63;;
65047;SDS011;52089;51.362;-2.384;2022-12-07T13:47:55;9.20;;;3.80;;
65047;SDS011;52089;51.362;-2.384;2022-12-07T13:51:39;4.73;;;3.07;;
65047;SDS011;52089;51.362;-2.384;2022-12-07T13:55:21;5.80;;;2.77;;
65047;SDS011;52089;51.362;-2.384;2022-12-07T13:59:04;6.43;;;3.60;;
65047;SDS011;52089;51.362;-2.384;2022-12-07T14:02:57;5.20;;;2.80;;
65047;SDS011;52089;51.362;-2.384;2022-12-07T14:06:50;5.87;;;2.20;;
65047;SDS011;52089;51.362;-2.384;2022-12-07T14:10:34;6.90;;;3.10;;
65047;SDS011;52089;51.362;-2.384;2022-12-07T14:14:18;9.23;;;3.20;;
65047;SDS011;52089;51.362;-2.384;2022-12-07T14:18:03;7.30;;;2.67;;
65047;SDS011;52089;51.362;-2.384;2022-12-07T14:21:45;8.57;;;3.03;;
65047;SDS011;52089;51.362;-2.384;2022-12-07T14:25:27;6.97;;;3.13;;
65047;SDS011;52089;51.362;-2.384;2022-12-07T14:37:03;4.30;;;2.23;;
65047;SDS011;52089;51.362;-2.384;2022-12-07T14:40:48;5.57;;;2.73;;
65047;SDS011;52089;51.362;-2.384;2022-12-07T14:44:30;4.63;;;2.27;;
65047;SDS011;52089;51.362;-2.384;2022-12-07T14:48:16;7.20;;;2.40;;
65047;SDS011;52089;51.362;-2.384;2022-12-07T14:52:21;5.67;;;3.07;;
65047;SDS011;52089;51.362;-2.384;2022-12-07T14:56:26;4.57;;;2.30;;
65047;SDS011;52089;51.362;-2.384;2022-12-07T15:00:09;4.80;;;2.30;;
65047;SDS011;52089;51.362;-2.384;2022-12-07T15:03:55;5.73;;;2.20;;
65047;SDS011;52089;51.362;-2.384;2022-12-07T15:07:37;4.70;;;2.00;;
65047;SDS011;52089;51.362;-2.384;2022-12-07T15:11:19;5.50;;;2.40;;
65047;SDS011;52089;51.362;-2.384;2022-12-07T15:15:00;6.57;;;2.13;;
65047;SDS011;52089;51.362;-2.384;2022-12-07T15:18:43;7.57;;;2.30;;
65047;SDS011;52089;51.362;-2.384;2022-12-07T15:22:44;6.67;;;2.17;;
65047;SDS011;52089;51.362;-2.384;2022-12-07T15:26:27;4.77;;;1.53;;
65047;SDS011;52089;51.362;-2.384;2022-12-07T15:30:09;6.23;;;4.03;;
65047;SDS011;52089;51.362;-2.384;2022-12-07T15:33:51;18.73;;;11.73;;
65047;SDS011;52089;51.362;-2.384;2022-12-07T15:37:33;7.97;;;4.50;;
65047;SDS011;52089;51.362;-2.384;2022-12-07T15:41:15;8.10;;;3.53;;
65047;SDS011;52089;51.362;-2.384;2022-12-07T15:44:58;5.13;;;2.67;;
65047;SDS011;52089;51.362;-2.384;2022-12-07T15:48:46;7.30;;;3.30;;
65047;SDS011;52089;51.362;-2.384;2022-12-07T15:52:28;5.20;;;3.27;;
65047;SDS011;52089;51.362;-2.384;2022-12-07T15:56:10;5.73;;;3.10;;
65047;SDS011;52089;51.362;-2.384;2022-12-07T15:59:53;6.83;;;2.47;;
65047;SDS011;52089;51.362;-2.384;2022-12-07T16:03:34;5.63;;;2.87;;
65047;SDS011;52089;51.362;-2.384;2022-12-07T16:07:16;7.23;;;3.00;;
65047;SDS011;52089;51.362;-2.384;2022-12-07T16:10:59;5.30;;;3.07;;
65047;SDS011;52089;51.362;-2.384;2022-12-07T16:14:41;6.10;;;2.93;;
65047;SDS011;52089;51.362;-2.384;2022-12-07T16:18:23;6.33;;;2.73;;
65047;SDS011;52089;51.362;-2.384;2022-12-07T16:22:05;10.47;;;3.03;;
65047;SDS011;52089;51.362;-2.384;2022-12-07T16:25:47;6.43;;;2.93;;
65047;SDS011;52089;51.362;-2.384;2022-12-07T16:29:29;3.33;;;2.10;;
65047;SDS011;52089;51.362;-2.384;2022-12-07T16:33:11;4.77;;;2.57;;
65047;SDS011;52089;51.362;-2.384;2022-12-07T16:36:53;7.17;;;2.60;;
65047;SDS011;52089;51.362;-2.384;2022-12-07T16:40:46;6.17;;;2.90;;
65047;SDS011;52089;51.362;-2.384;2022-12-07T16:44:28;4.83;;;2.67;;
65047;SDS011;52089;51.362;-2.384;2022-12-07T16:48:11;8.37;;;2.90;;
65047;SDS011;52089;51.362;-2.384;2022-12-07T16:51:53;7.80;;;4.60;;
65047;SDS011;52089;51.362;-2.384;2022-12-07T16:55:55;5.70;;;3.10;;
65047;SDS011;52089;51.362;-2.384;2022-12-07T16:59:37;5.97;;;3.33;;
65047;SDS011;52089;51.362;-2.384;2022-12-07T17:03:18;7.97;;;3.63;;
65047;SDS011;52089;51.362;-2.384;2022-12-07T17:07:01;7.77;;;3.77;;
65047;SDS011;52089;51.362;-2.384;2022-12-07T17:10:43;7.13;;;3.90;;
65047;SDS011;52089;51.362;-2.384;2022-12-07T17:14:25;7.93;;;4.00;;
65047;SDS011;52089;51.362;-2.384;2022-12-07T17:18:30;8.88;;;4.15;;
65047;SDS011;52089;51.362;-2.384;2022-12-07T17:22:14;7.10;;;4.00;;
65047;SDS011;52089;51.362;-2.384;2022-12-07T17:25:55;8.37;;;4.73;;
65047;SDS011;52089;51.362;-2.384;2022-12-07T17:29:37;7.57;;;4.20;;
65047;SDS011;52089;51.362;-2.384;2022-12-07T17:33:19;7.27;;;4.17;;
65047;SDS011;52089;51.362;-2.384;2022-12-07T17:37:02;8.43;;;4.70;;
65047;SDS011;52089;51.362;-2.384;2022-12-07T17:40:44;7.33;;;4.27;;
65047;SDS011;52089;51.362;-2.384;2022-12-07T17:44:27;8.90;;;5.20;;
65047;SDS011;52089;51.362;-2.384;2022-12-07T17:48:09;12.50;;;4.97;;
65047;SDS011;52089;51.362;-2.384;2022-12-07T17:51:50;8.13;;;4.23;;
65047;SDS011;52089;51.362;-2.384;2022-12-07T17:55:54;11.15;;;5.07;;
65047;SDS011;52089;51.362;-2.384;2022-12-07T17:59:56;7.13;;;3.60;;
65047;SDS011;52089;51.362;-2.384;2022-12-07T18:03:38;7.50;;;4.07;;
65047;SDS011;52089;51.362;-2.384;2022-12-07T18:07:20;7.77;;;4.60;;
65047;SDS011;52089;51.362;-2.384;2022-12-07T18:11:02;8.17;;;4.57;;
65047;SDS011;52089;51.362;-2.384;2022-12-07T18:14:45;12.13;;;5.53;;
65047;SDS011;52089;51.362;-2.384;2022-12-07T18:18:27;12.70;;;4.63;;
65047;SDS011;52089;51.362;-2.384;2022-12-07T18:22:09;10.27;;;5.10;;
65047;SDS011;52089;51.362;-2.384;2022-12-07T18:25:51;11.57;;;5.63;;
65047;SDS011;52089;51.362;-2.384;2022-12-07T18:29:33;7.70;;;5.03;;
65047;SDS011;52089;51.362;-2.384;2022-12-07T18:33:16;16.53;;;5.47;;
65047;SDS011;52089;51.362;-2.384;2022-12-07T18:36:58;10.00;;;5.37;;
65047;SDS011;52089;51.362;-2.384;2022-12-07T18:40:40;12.63;;;7.13;;
65047;SDS011;52089;51.362;-2.384;2022-12-07T18:44:23;12.73;;;7.43;;
65047;SDS011;52089;51.362;-2.384;2022-12-07T18:48:06;14.80;;;7.50;;
65047;SDS011;52089;51.362;-2.384;2022-12-07T18:51:48;13.90;;;6.77;;
65047;SDS011;52089;51.362;-2.384;2022-12-07T18:55:31;13.00;;;7.30;;
65047;SDS011;52089;51.362;-2.384;2022-12-07T18:59:13;13.97;;;7.83;;
65047;SDS011;52089;51.362;-2.384;2022-12-07T19:03:14;16.00;;;7.63;;
65047;SDS011;52089;51.362;-2.384;2022-12-07T19:06:55;15.87;;;8.33;;
65047;SDS011;52089;51.362;-2.384;2022-12-07T19:10:37;13.67;;;6.77;;
65047;SDS011;52089;51.362;-2.384;2022-12-07T19:18:03;11.20;;;6.33;;
65047;SDS011;52089;51.362;-2.384;2022-12-07T19:21:44;11.33;;;5.90;;
65047;SDS011;52089;51.362;-2.384;2022-12-07T19:25:27;10.80;;;5.80;;
65047;SDS011;52089;51.362;-2.384;2022-12-07T19:29:08;9.63;;;5.57;;
65047;SDS011;52089;51.362;-2.384;2022-12-07T19:32:50;9.17;;;5.23;;
65047;SDS011;52089;51.362;-2.384;2022-12-07T19:36:32;9.90;;;4.90;;
65047;SDS011;52089;51.362;-2.384;2022-12-07T19:40:14;10.50;;;5.27;;
65047;SDS011;52089;51.362;-2.384;2022-12-07T19:43:56;11.37;;;5.03;;
65047;SDS011;52089;51.362;-2.384;2022-12-07T19:47:38;8.70;;;4.47;;
65047;SDS011;52089;51.362;-2.384;2022-12-07T19:51:20;7.63;;;3.97;;
65047;SDS011;52089;51.362;-2.384;2022-12-07T19:55:02;9.07;;;3.90;;
65047;SDS011;52089;51.362;-2.384;2022-12-07T19:58:44;9.67;;;4.63;;
65047;SDS011;52089;51.362;-2.384;2022-12-07T20:02:28;7.47;;;3.80;;
65047;SDS011;52089;51.362;-2.384;2022-12-07T20:06:10;10.43;;;4.50;;
65047;SDS011;52089;51.362;-2.384;2022-12-07T20:09:54;9.70;;;4.77;;
65047;SDS011;52089;51.362;-2.384;2022-12-07T20:13:36;7.90;;;4.00;;
65047;SDS011;52089;51.362;-2.384;2022-12-07T20:17:18;6.67;;;4.20;;
65047;SDS011;52089;51.362;-2.384;2022-12-07T20:21:00;9.40;;;4.40;;
65047;SDS011;52089;51.362;-2.384;2022-12-07T20:24:42;8.47;;;4.53;;
65047;SDS011;52089;51.362;-2.384;2022-12-07T20:28:23;10.03;;;5.00;;
65047;SDS011;52089;51.362;-2.384;2022-12-07T20:32:05;7.40;;;4.57;;
65047;SDS011;52089;51.362;-2.384;2022-12-07T20:35:47;8.00;;;3.97;;
65047;SDS011;52089;51.362;-2.384;2022-12-07T20:39:29;7.23;;;4.27;;
65047;SDS011;52089;51.362;-2.384;2022-12-07T20:43:11;11.37;;;4.80;;
65047;SDS011;52089;51.362;-2.384;2022-12-07T20:46:53;8.17;;;5.03;;
65047;SDS011;52089;51.362;-2.384;2022-12-07T20:50:35;9.00;;;4.90;;
65047;SDS011;52089;51.362;-2.384;2022-12-07T20:54:22;5.67;;;4.23;;
65047;SDS011;52089;51.362;-2.384;2022-12-07T20:58:04;8.87;;;4.20;;
65047;SDS011;52089;51.362;-2.384;2022-12-07T21:01:46;10.93;;;4.20;;
65047;SDS011;52089;51.362;-2.384;2022-12-07T21:05:28;8.17;;;4.10;;
65047;SDS011;52089;51.362;-2.384;2022-12-07T21:09:10;7.30;;;4.07;;
65047;SDS011;52089;51.362;-2.384;2022-12-07T21:12:52;8.50;;;4.17;;
65047;SDS011;52089;51.362;-2.384;2022-12-07T21:16:36;11.23;;;4.43;;
65047;SDS011;52089;51.362;-2.384;2022-12-07T21:20:18;7.33;;;4.50;;
65047;SDS011;52089;51.362;-2.384;2022-12-07T21:24:00;7.13;;;4.07;;
65047;SDS011;52089;51.362;-2.384;2022-12-07T21:27:43;8.43;;;4.00;;
65047;SDS011;52089;51.362;-2.384;2022-12-07T21:31:25;13.90;;;4.70;;
65047;SDS011;52089;51.362;-2.384;2022-12-07T21:35:07;8.17;;;3.73;;
65047;SDS011;52089;51.362;-2.384;2022-12-07T21:38:49;9.73;;;4.13;;
65047;SDS011;52089;51.362;-2.384;2022-12-07T21:42:31;7.10;;;4.13;;
65047;SDS011;52089;51.362;-2.384;2022-12-07T21:46:13;6.97;;;3.97;;
65047;SDS011;52089;51.362;-2.384;2022-12-07T21:49:56;11.23;;;4.53;;
65047;SDS011;52089;51.362;-2.384;2022-12-07T21:53:38;7.50;;;4.60;;
65047;SDS011;52089;51.362;-2.384;2022-12-07T21:57:21;7.90;;;3.63;;
65047;SDS011;52089;51.362;-2.384;2022-12-07T22:01:03;7.43;;;4.57;;
65047;SDS011;52089;51.362;-2.384;2022-12-07T22:04:45;7.17;;;4.00;;
65047;SDS011;52089;51.362;-2.384;2022-12-07T22:08:28;10.97;;;3.90;;
65047;SDS011;52089;51.362;-2.384;2022-12-07T22:12:10;9.67;;;3.93;;
65047;SDS011;52089;51.362;-2.384;2022-12-07T22:15:51;8.73;;;5.00;;
65047;SDS011;52089;51.362;-2.384;2022-12-07T22:19:33;8.10;;;3.43;;
65047;SDS011;52089;51.362;-2.384;2022-12-07T22:23:15;6.73;;;4.23;;
65047;SDS011;52089;51.362;-2.384;2022-12-07T22:26:57;6.40;;;3.80;;
65047;SDS011;52089;51.362;-2.384;2022-12-07T22:30:39;8.30;;;4.20;;
65047;SDS011;52089;51.362;-2.384;2022-12-07T22:34:21;5.80;;;4.30;;
65047;SDS011;52089;51.362;-2.384;2022-12-07T22:38:02;6.83;;;3.93;;
65047;SDS011;52089;51.362;-2.384;2022-12-07T22:41:44;8.00;;;4.10;;
65047;SDS011;52089;51.362;-2.384;2022-12-07T22:45:26;5.97;;;3.57;;
65047;SDS011;52089;51.362;-2.384;2022-12-07T22:49:08;6.57;;;4.00;;
65047;SDS011;52089;51.362;-2.384;2022-12-07T22:52:52;5.77;;;3.70;;
65047;SDS011;52089;51.362;-2.384;2022-12-07T22:56:36;7.53;;;3.90;;
65047;SDS011;52089;51.362;-2.384;2022-12-07T23:00:18;8.53;;;3.47;;
65047;SDS011;52089;51.362;-2.384;2022-12-07T23:04:00;10.33;;;4.10;;
65047;SDS011;52089;51.362;-2.384;2022-12-07T23:07:42;5.20;;;3.30;;
65047;SDS011;52089;51.362;-2.384;2022-12-07T23:11:25;7.77;;;4.03;;
65047;SDS011;52089;51.362;-2.384;2022-12-07T23:15:27;6.27;;;3.20;;
65047;SDS011;52089;51.362;-2.384;2022-12-07T23:19:09;6.13;;;3.17;;
65047;SDS011;52089;51.362;-2.384;2022-12-07T23:22:52;8.77;;;3.70;;
65047;SDS011;52089;51.362;-2.384;2022-12-07T23:26:33;6.17;;;3.73;;
65047;SDS011;52089;51.362;-2.384;2022-12-07T23:30:15;7.30;;;2.90;;
65047;SDS011;52089;51.362;-2.384;2022-12-07T23:33:57;6.13;;;3.37;;
65047;SDS011;52089;51.362;-2.384;2022-12-07T23:37:39;5.87;;;3.17;;
65047;SDS011;52089;51.362;-2.384;2022-12-07T23:41:22;5.30;;;2.90;;
65047;SDS011;52089;51.362;-2.384;2022-12-07T23:45:06;6.70;;;3.13;;
65047;SDS011;52089;51.362;-2.384;2022-12-07T23:48:49;5.53;;;3.27;;
65047;SDS011;52089;51.362;-2.384;2022-12-07T23:52:32;7.83;;;3.00;;
65047;SDS011;52089;51.362;-2.384;2022-12-07T23:56:21;7.17;;;2.83;;
